createdAt,value
2022-10-19T00:02:21.756Z,12.36
2022-10-19T00:04:48.301Z,12.32
2022-10-19T00:07:14.845Z,12.40
2022-10-19T00:09:43.935Z,12.30
2022-10-19T00:12:10.471Z,12.28
2022-10-19T00:14:36.926Z,12.27
2022-10-19T00:17:03.395Z,12.20
2022-10-19T00:19:29.906Z,12.18
2022-10-19T00:21:56.366Z,12.07
2022-10-19T00:24:22.824Z,12.04
2022-10-19T00:26:49.320Z,12.05
2022-10-19T00:29:16.162Z,12.16
2022-10-19T00:31:42.896Z,12.07
2022-10-19T00:34:09.799Z,12.07
2022-10-19T00:36:39.202Z,12.07
2022-10-19T00:39:07.768Z,11.96
2022-10-19T00:41:36.139Z,11.97
2022-10-19T00:44:07.240Z,11.98
2022-10-19T00:46:36.953Z,11.98
2022-10-19T00:49:17.546Z,11.85
2022-10-19T00:51:47.918Z,11.87
2022-10-19T00:54:15.945Z,11.86
2022-10-19T00:56:44.691Z,11.86
2022-10-19T00:59:14.674Z,11.88
2022-10-19T01:01:43.798Z,11.90
2022-10-19T01:04:10.808Z,11.72
2022-10-19T01:06:38.361Z,11.80
2022-10-19T01:09:05.885Z,11.61
2022-10-19T01:11:57.422Z,11.66
2022-10-19T01:14:46.906Z,11.73
2022-10-19T01:17:32.318Z,11.53
2022-10-19T01:20:23.007Z,11.61
2022-10-19T01:23:10.233Z,11.74
2022-10-19T01:26:01.163Z,11.62
2022-10-19T01:29:06.300Z,11.52
2022-10-19T01:31:57.217Z,11.64
2022-10-19T01:34:40.326Z,11.60
2022-10-19T01:37:14.838Z,11.63
2022-10-19T01:39:49.794Z,11.63
2022-10-19T01:42:21.580Z,11.58
2022-10-19T01:45:06.437Z,11.58
2022-10-19T01:47:38.714Z,11.53
2022-10-19T01:50:16.066Z,11.47
2022-10-19T01:52:43.628Z,11.50
2022-10-19T01:55:13.985Z,11.52
2022-10-19T01:57:45.821Z,11.53
2022-10-19T02:00:15.784Z,11.44
2022-10-19T02:02:48.543Z,11.41
2022-10-19T02:05:19.050Z,11.40
2022-10-19T02:07:50.821Z,11.35
2022-10-19T02:10:19.325Z,11.30
2022-10-19T02:12:46.857Z,11.44
2022-10-19T02:15:19.352Z,11.34
2022-10-19T02:17:48.972Z,11.34
2022-10-19T02:20:17.210Z,11.33
2022-10-19T02:22:43.758Z,11.24
2022-10-19T02:25:11.118Z,11.24
2022-10-19T02:27:42.007Z,11.16
2022-10-19T02:30:14.235Z,11.25
2022-10-19T02:32:41.036Z,11.11
2022-10-19T02:35:08.073Z,11.03
2022-10-19T02:40:06.894Z,11.11
2022-10-19T02:42:43.577Z,11.11
2022-10-19T02:45:37.143Z,11.02
2022-10-19T02:48:20.066Z,11.11
2022-10-19T02:50:49.929Z,11.01
2022-10-19T02:53:16.609Z,10.76
2022-10-19T02:55:43.663Z,10.93
2022-10-19T02:58:10.224Z,11.01
2022-10-19T03:00:36.717Z,11.01
2022-10-19T03:03:03.287Z,10.82
2022-10-19T03:05:29.790Z,10.88
2022-10-19T03:07:56.292Z,10.87
2022-10-19T03:10:23.066Z,10.94
2022-10-19T03:12:49.648Z,10.75
2022-10-19T03:15:17.247Z,10.82
2022-10-19T03:17:44.187Z,10.79
2022-10-19T03:20:11.806Z,10.88
2022-10-19T03:22:38.274Z,10.83
2022-10-19T03:25:05.068Z,10.94
2022-10-19T03:27:31.783Z,10.53
2022-10-19T03:29:58.472Z,10.64
2022-10-19T03:32:24.917Z,10.71
2022-10-19T03:34:51.360Z,10.32
2022-10-19T03:37:17.798Z,10.55
2022-10-19T03:39:44.261Z,10.66
2022-10-19T03:42:10.717Z,10.53
2022-10-19T03:44:37.151Z,10.74
2022-10-19T03:47:03.601Z,10.40
2022-10-19T03:49:30.036Z,10.73
2022-10-19T03:51:56.495Z,10.62
2022-10-19T03:54:26.489Z,10.74
2022-10-19T03:56:54.001Z,10.55
2022-10-19T03:59:20.458Z,10.78
2022-10-19T04:01:46.954Z,10.81
2022-10-19T04:04:16.587Z,10.84
2022-10-19T04:06:45.566Z,10.80
2022-10-19T04:09:14.414Z,10.77
2022-10-19T04:11:41.890Z,10.61
2022-10-19T04:16:36.106Z,10.54
2022-10-19T04:19:02.609Z,10.51
2022-10-19T04:21:34.531Z,10.61
2022-10-19T04:24:05.593Z,10.67
2022-10-19T04:26:32.714Z,10.59
2022-10-19T04:29:00.610Z,10.55
2022-10-19T04:31:28.195Z,10.64
2022-10-19T04:33:55.209Z,10.56
2022-10-19T04:36:22.127Z,10.54
2022-10-19T04:38:48.830Z,10.62
2022-10-19T04:41:18.188Z,10.61
2022-10-19T04:43:45.326Z,10.67
2022-10-19T04:46:18.021Z,10.72
2022-10-19T04:48:46.454Z,10.69
2022-10-19T04:51:13.164Z,10.60
2022-10-19T04:53:40.876Z,10.63
2022-10-19T04:56:11.042Z,10.52
2022-10-19T04:58:37.504Z,10.50
2022-10-19T05:01:17.549Z,10.46
2022-10-19T05:03:44.425Z,10.37
2022-10-19T05:06:12.417Z,10.23
2022-10-19T05:08:39.618Z,10.42
2022-10-19T05:11:12.287Z,10.49
2022-10-19T05:13:39.013Z,10.34
2022-10-19T05:16:08.095Z,10.39
2022-10-19T05:18:35.041Z,10.33
2022-10-19T05:21:12.637Z,10.41
2022-10-19T05:23:40.420Z,10.49
2022-10-19T05:26:13.335Z,10.45
2022-10-19T05:28:39.981Z,10.45
2022-10-19T05:31:19.039Z,10.44
2022-10-19T05:33:46.193Z,10.43
2022-10-19T05:36:26.589Z,10.51
2022-10-19T05:38:57.282Z,10.57
2022-10-19T05:41:25.043Z,10.63
2022-10-19T05:43:57.567Z,10.64
2022-10-19T05:46:25.255Z,10.58
2022-10-19T05:48:51.783Z,10.63
2022-10-19T05:51:20.246Z,10.58
2022-10-19T05:53:46.805Z,10.71
2022-10-19T05:56:18.787Z,10.56
2022-10-19T05:58:45.593Z,10.65
2022-10-19T06:01:12.216Z,10.67
2022-10-19T06:03:38.703Z,10.59
2022-10-19T06:06:06.637Z,10.48
2022-10-19T06:08:33.518Z,10.38
2022-10-19T06:11:15.071Z,10.41
2022-10-19T06:13:43.278Z,10.48
2022-10-19T06:16:11.848Z,10.50
2022-10-19T06:18:38.660Z,10.40
2022-10-19T06:21:08.034Z,10.50
2022-10-19T06:23:35.669Z,10.52
2022-10-19T06:26:04.905Z,10.63
2022-10-19T06:28:31.545Z,10.58
2022-10-19T06:30:58.890Z,10.63
2022-10-19T06:33:26.641Z,10.65
2022-10-19T06:35:53.405Z,10.67
2022-10-19T06:38:19.911Z,10.66
2022-10-19T06:40:46.488Z,10.72
2022-10-19T06:43:12.942Z,10.65
2022-10-19T06:45:39.586Z,10.71
2022-10-19T06:48:07.803Z,10.74
2022-10-19T06:50:35.336Z,10.75
2022-10-19T06:53:01.776Z,10.73
2022-10-19T06:55:28.428Z,10.79
2022-10-19T06:57:54.852Z,10.85
2022-10-19T07:00:21.543Z,10.86
2022-10-19T07:02:48.638Z,10.92
2022-10-19T07:05:16.267Z,10.81
2022-10-19T07:07:43.057Z,10.82
2022-10-19T07:10:09.942Z,10.83
2022-10-19T07:12:36.493Z,10.99
2022-10-19T07:15:03.257Z,11.00
2022-10-19T07:17:29.878Z,10.99
2022-10-19T07:19:56.475Z,10.97
2022-10-19T07:22:27.971Z,11.05
2022-10-19T07:24:54.872Z,10.98
2022-10-19T07:27:21.461Z,11.02
2022-10-19T07:29:48.010Z,10.83
2022-10-19T07:32:14.479Z,10.86
2022-10-19T07:34:40.948Z,10.86
2022-10-19T07:37:07.444Z,10.85
2022-10-19T07:39:33.902Z,10.91
2022-10-19T07:42:00.330Z,11.06
2022-10-19T07:44:26.877Z,10.97
2022-10-19T07:46:53.322Z,11.00
2022-10-19T07:49:20.678Z,11.08
2022-10-19T07:51:47.247Z,11.01
2022-10-19T07:55:04.362Z,10.84
2022-10-19T07:57:30.830Z,10.78
2022-10-19T07:59:57.285Z,10.90
2022-10-19T08:02:30.773Z,10.87
2022-10-19T08:05:09.143Z,10.88
2022-10-19T08:07:37.896Z,11.02
2022-10-19T08:10:05.209Z,10.92
2022-10-19T08:12:31.899Z,11.12
2022-10-19T08:14:58.576Z,11.05
2022-10-19T08:17:25.046Z,10.99
2022-10-19T08:19:51.525Z,11.13
2022-10-19T08:22:17.962Z,11.19
2022-10-19T08:24:44.427Z,11.20
2022-10-19T08:27:10.866Z,11.20
2022-10-19T08:29:37.298Z,11.20
2022-10-19T08:32:03.825Z,11.32
2022-10-19T08:34:30.272Z,11.20
2022-10-19T08:36:56.726Z,11.28
2022-10-19T08:39:23.264Z,11.31
2022-10-19T08:42:05.007Z,11.46
2022-10-19T08:44:34.454Z,11.41
2022-10-19T08:47:13.836Z,11.35
2022-10-19T08:49:41.636Z,11.49
2022-10-19T08:52:16.251Z,11.44
2022-10-19T08:54:55.578Z,11.39
2022-10-19T08:57:32.701Z,11.45
2022-10-19T09:00:14.895Z,11.59
2022-10-19T09:02:57.748Z,11.52
2022-10-19T09:05:30.961Z,11.50
2022-10-19T09:07:57.478Z,11.59
2022-10-19T09:10:28.464Z,11.58
2022-10-19T09:13:03.271Z,11.58
2022-10-19T09:15:40.603Z,11.39
2022-10-19T09:18:13.964Z,11.42
2022-10-19T09:20:44.440Z,11.47
2022-10-19T09:23:29.302Z,11.49
2022-10-19T09:25:57.309Z,11.55
2022-10-19T09:28:39.787Z,11.70
2022-10-19T09:31:14.709Z,11.61
2022-10-19T09:33:43.832Z,11.64
2022-10-19T09:36:18.308Z,11.87
2022-10-19T09:38:50.255Z,11.90
2022-10-19T09:41:19.647Z,11.84
2022-10-19T09:43:53.305Z,12.13
2022-10-19T09:49:15.538Z,11.94
2022-10-19T09:51:52.363Z,11.84
2022-10-19T09:54:25.493Z,11.90
2022-10-19T09:56:56.359Z,11.83
2022-10-19T09:59:28.175Z,12.11
2022-10-19T10:02:13.149Z,12.11
2022-10-19T10:04:39.635Z,12.43
2022-10-19T10:07:06.139Z,12.21
2022-10-19T10:09:38.260Z,12.38
2022-10-19T10:12:08.432Z,12.28
2022-10-19T10:14:36.504Z,12.09
2022-10-19T10:17:06.617Z,12.08
2022-10-19T10:19:36.021Z,12.16
2022-10-19T10:22:04.313Z,11.91
2022-10-19T10:24:34.165Z,12.04
2022-10-19T10:27:04.347Z,11.96
2022-10-19T10:29:36.644Z,12.06
2022-10-19T10:32:17.847Z,11.89
2022-10-19T10:34:53.802Z,12.04
2022-10-19T10:37:46.002Z,12.01
2022-10-19T10:40:24.531Z,11.96
2022-10-19T10:42:54.128Z,12.11
2022-10-19T10:45:29.251Z,12.12
2022-10-19T10:47:57.658Z,12.23
2022-10-19T10:50:34.126Z,12.29
2022-10-19T10:53:04.353Z,12.57
2022-10-19T10:55:32.140Z,12.38
2022-10-19T10:58:11.732Z,12.35
2022-10-19T11:00:40.323Z,12.47
2022-10-19T11:03:17.434Z,12.57
2022-10-19T11:05:48.089Z,12.51
2022-10-19T11:08:26.983Z,12.33
2022-10-19T11:11:00.373Z,12.15
2022-10-19T11:13:46.369Z,11.98
2022-10-19T11:16:16.786Z,11.93
2022-10-19T11:18:43.196Z,11.93
2022-10-19T11:21:31.994Z,11.89
2022-10-19T11:24:23.621Z,11.93
2022-10-19T11:27:14.591Z,12.12
2022-10-19T11:30:16.096Z,12.06
2022-10-19T11:33:07.819Z,12.01
2022-10-19T11:35:39.705Z,12.15
2022-10-19T11:38:25.147Z,12.43
2022-10-19T11:41:18.289Z,12.03
2022-10-19T11:43:56.265Z,12.20
2022-10-19T11:46:41.994Z,12.04
2022-10-19T11:49:45.618Z,12.31
2022-10-19T11:52:29.222Z,12.16
2022-10-19T11:55:00.494Z,12.49
2022-10-19T11:57:44.835Z,12.56
2022-10-19T12:00:37.540Z,12.08
2022-10-19T12:03:41.359Z,12.31
2022-10-19T12:06:26.492Z,12.19
2022-10-19T12:09:20.988Z,12.11
2022-10-19T12:12:07.199Z,12.32
2022-10-19T12:14:38.942Z,12.13
2022-10-19T12:17:10.914Z,12.07
2022-10-19T12:19:45.256Z,12.53
2022-10-19T12:22:25.051Z,12.85
2022-10-19T12:24:55.402Z,12.63
2022-10-19T12:27:31.935Z,12.75
2022-10-19T12:30:04.418Z,12.45
2022-10-19T12:32:37.505Z,12.48
2022-10-19T12:35:26.066Z,12.55
2022-10-19T12:38:05.565Z,12.46
2022-10-19T12:40:43.579Z,12.33
2022-10-19T12:43:24.178Z,12.17
2022-10-19T12:46:07.727Z,12.18
2022-10-19T12:48:36.354Z,12.41
2022-10-19T12:51:11.901Z,12.51
2022-10-19T12:53:42.524Z,12.95
2022-10-19T12:56:17.986Z,12.88
2022-10-19T12:58:47.482Z,12.72
2022-10-19T13:01:22.467Z,12.35
2022-10-19T13:03:53.845Z,12.65
2022-10-19T13:06:23.230Z,12.38
2022-10-19T13:08:52.756Z,12.98
2022-10-19T13:11:20.604Z,12.75
2022-10-19T13:13:54.854Z,13.04
2022-10-19T13:16:30.333Z,13.14
2022-10-19T13:18:59.753Z,12.61
2022-10-19T13:21:44.835Z,12.61
2022-10-19T13:24:27.923Z,12.44
2022-10-19T13:27:03.226Z,12.41
2022-10-19T13:29:38.882Z,12.28
2022-10-19T13:32:39.078Z,12.18
2022-10-19T13:35:25.345Z,12.14
2022-10-19T13:38:15.882Z,12.28
2022-10-19T13:40:48.142Z,12.02
2022-10-19T13:43:20.218Z,12.37
2022-10-19T13:46:10.440Z,12.40
2022-10-19T13:48:36.782Z,12.73
2022-10-19T13:51:20.229Z,12.45
2022-10-19T13:54:13.861Z,12.64
2022-10-19T13:56:58.653Z,12.91
2022-10-19T13:59:49.858Z,12.87
2022-10-19T14:02:47.756Z,12.90
2022-10-19T14:05:27.161Z,12.55
2022-10-19T14:08:08.515Z,12.87
2022-10-19T14:10:56.234Z,12.78
2022-10-19T14:13:23.248Z,12.66
2022-10-19T14:15:53.275Z,12.71
2022-10-19T14:18:34.687Z,13.26
2022-10-19T14:21:06.313Z,12.94
2022-10-19T14:23:35.618Z,12.52
2022-10-19T14:26:11.423Z,12.49
2022-10-19T14:28:39.723Z,12.98
2022-10-19T14:31:09.615Z,13.12
2022-10-19T14:33:40.109Z,13.28
2022-10-19T14:36:17.040Z,13.06
2022-10-19T14:38:43.910Z,12.82
2022-10-19T14:41:29.113Z,12.78
2022-10-19T14:43:56.901Z,13.17
2022-10-19T14:46:33.204Z,13.03
2022-10-19T14:49:05.190Z,13.35
2022-10-19T14:52:10.230Z,13.37
2022-10-19T14:54:46.262Z,13.32
2022-10-19T14:57:17.994Z,13.41
2022-10-19T14:59:53.898Z,13.28
2022-10-19T15:02:34.576Z,13.02
2022-10-19T15:05:03.570Z,13.24
2022-10-19T15:07:41.620Z,13.13
2022-10-19T15:10:39.285Z,13.37
2022-10-19T15:13:07.448Z,13.24
2022-10-19T15:15:35.675Z,12.86
2022-10-19T15:18:02.218Z,13.18
2022-10-19T15:20:43.933Z,13.07
2022-10-19T15:23:30.440Z,13.21
2022-10-19T15:26:01.870Z,13.36
2022-10-19T15:28:37.429Z,13.19
2022-10-19T15:31:19.701Z,13.30
2022-10-19T15:33:51.725Z,13.13
2022-10-19T15:36:20.087Z,13.22
2022-10-19T15:39:18.175Z,13.45
2022-10-19T15:41:50.448Z,13.39
2022-10-19T15:44:42.903Z,13.57
2022-10-19T15:47:15.279Z,13.67
2022-10-19T15:49:41.708Z,13.70
2022-10-19T15:52:19.543Z,13.69
2022-10-19T15:54:51.298Z,13.69
2022-10-19T15:57:38.187Z,13.68
2022-10-19T16:00:13.473Z,13.27
2022-10-19T16:02:40.026Z,13.47
2022-10-19T16:07:40.983Z,13.66
2022-10-19T16:10:14.710Z,13.60
2022-10-19T16:12:41.257Z,13.54
2022-10-19T16:15:12.109Z,12.73
2022-10-19T16:17:38.981Z,12.23
2022-10-19T16:20:06.355Z,12.96
2022-10-19T16:22:32.785Z,12.80
2022-10-19T16:24:59.277Z,12.55
2022-10-19T16:27:25.728Z,12.66
2022-10-19T16:29:52.213Z,12.48
2022-10-19T16:32:18.662Z,11.96
2022-10-19T16:34:46.321Z,12.10
2022-10-19T16:37:12.756Z,12.33
2022-10-19T16:39:39.202Z,12.51
2022-10-19T16:42:05.644Z,12.57
2022-10-19T16:44:32.100Z,12.10
2022-10-19T16:46:58.793Z,12.69
2022-10-19T16:49:26.073Z,12.99
2022-10-19T16:51:56.263Z,13.03
2022-10-19T16:54:26.695Z,12.84
2022-10-19T16:56:53.230Z,12.51
2022-10-19T16:59:19.794Z,12.37
2022-10-19T17:01:47.009Z,12.64
2022-10-19T17:04:15.668Z,12.77
2022-10-19T17:06:42.238Z,12.91
2022-10-19T17:09:40.663Z,12.92
2022-10-19T17:11:55.838Z,12.79
2022-10-19T17:14:22.294Z,12.70
2022-10-19T17:16:48.942Z,12.75
2022-10-19T17:19:15.535Z,12.67
2022-10-19T17:21:42.493Z,12.57
2022-10-19T17:24:17.136Z,12.57
2022-10-19T17:26:48.421Z,12.49
2022-10-19T17:29:14.961Z,12.36
2022-10-19T17:31:42.122Z,12.29
2022-10-19T17:34:09.283Z,12.33
2022-10-19T17:39:14.600Z,12.39
2022-10-19T17:41:41.099Z,12.23
2022-10-19T17:44:07.681Z,12.13
2022-10-19T17:46:34.965Z,12.09
2022-10-19T17:49:01.596Z,12.08
2022-10-19T17:51:30.693Z,12.08
2022-10-19T17:54:27.678Z,12.01
2022-10-19T17:56:54.247Z,11.89
2022-10-19T17:59:30.345Z,11.87
2022-10-19T18:02:02.341Z,11.79
2022-10-19T18:04:28.854Z,11.73
2022-10-19T18:06:55.343Z,11.72
2022-10-19T18:09:21.816Z,11.61
2022-10-19T18:11:48.273Z,11.51
2022-10-19T18:14:14.776Z,11.55
2022-10-19T18:16:45.509Z,10.87
2022-10-19T18:19:13.754Z,11.24
2022-10-19T18:21:42.428Z,11.34
2022-10-19T18:24:15.212Z,11.44
2022-10-19T18:26:42.631Z,11.31
2022-10-19T18:29:12.831Z,11.31
2022-10-19T18:31:40.137Z,11.15
2022-10-19T18:34:10.749Z,11.14
2022-10-19T18:36:37.779Z,11.13
2022-10-19T18:39:05.437Z,11.07
2022-10-19T18:41:32.189Z,11.03
2022-10-19T18:44:05.034Z,10.03
2022-10-19T18:46:36.192Z,10.58
2022-10-19T18:49:04.655Z,10.73
2022-10-19T18:51:31.891Z,10.76
2022-10-19T18:53:59.084Z,10.78
2022-10-19T18:56:26.287Z,10.75
2022-10-19T18:58:52.774Z,10.82
2022-10-19T19:01:24.964Z,10.72
2022-10-19T19:03:53.268Z,10.71
2022-10-19T19:06:22.345Z,10.61
2022-10-19T19:08:49.538Z,10.55
2022-10-19T19:11:19.999Z,10.52
2022-10-19T19:13:54.628Z,10.50
2022-10-19T19:16:22.411Z,10.50
2022-10-19T19:18:49.079Z,10.47
2022-10-19T19:21:26.304Z,10.36
2022-10-19T19:23:54.563Z,10.42
2022-10-19T19:26:23.120Z,10.33
2022-10-19T19:28:51.653Z,10.33
2022-10-19T19:31:19.174Z,10.35
2022-10-19T19:33:47.693Z,10.33
2022-10-19T19:36:15.973Z,10.22
2022-10-19T19:38:42.953Z,10.22
2022-10-19T19:41:12.318Z,10.13
2022-10-19T19:43:39.916Z,10.07
2022-10-19T19:46:12.319Z,10.05
2022-10-19T19:48:40.887Z,9.97
2022-10-19T19:51:09.352Z,9.98
2022-10-19T19:53:37.237Z,9.94
2022-10-19T19:56:06.488Z,9.99
2022-10-19T19:58:33.016Z,9.82
2022-10-19T20:00:59.529Z,9.86
2022-10-19T20:03:26.282Z,9.80
2022-10-19T20:05:52.736Z,9.90
2022-10-19T20:08:19.219Z,9.91
2022-10-19T20:10:45.653Z,9.80
2022-10-19T20:13:12.128Z,9.89
2022-10-19T20:15:39.433Z,9.72
2022-10-19T20:18:06.569Z,9.67
2022-10-19T20:20:33.076Z,9.62
2022-10-19T20:22:59.536Z,9.57
2022-10-19T20:25:26.039Z,9.71
2022-10-19T20:27:52.491Z,9.72
2022-10-19T20:30:18.985Z,9.62
2022-10-19T20:32:45.445Z,9.51
2022-10-19T20:35:11.872Z,9.47
2022-10-19T20:37:38.355Z,9.50
2022-10-19T20:40:08.580Z,9.53
2022-10-19T20:42:36.191Z,9.48
2022-10-19T20:45:03.013Z,9.25
2022-10-19T20:47:29.503Z,9.45
2022-10-19T20:49:55.980Z,9.36
2022-10-19T20:52:22.557Z,9.28
2022-10-19T20:54:49.253Z,9.30
2022-10-19T20:57:15.784Z,9.38
2022-10-19T20:59:43.836Z,9.36
2022-10-19T21:02:10.784Z,9.25
2022-10-19T21:04:37.835Z,9.30
2022-10-19T21:07:05.043Z,9.18
2022-10-19T21:09:32.021Z,8.97
2022-10-19T21:11:58.909Z,8.97
2022-10-19T21:14:28.701Z,8.16
2022-10-19T21:16:56.903Z,8.90
2022-10-19T21:19:25.702Z,8.93
2022-10-19T21:21:56.438Z,8.54
2022-10-19T21:24:25.831Z,8.93
2022-10-19T21:29:23.798Z,8.83
2022-10-19T21:31:52.201Z,8.80
2022-10-19T21:34:30.118Z,8.98
2022-10-19T21:36:56.996Z,8.83
2022-10-19T21:39:23.552Z,8.82
2022-10-19T21:41:50.343Z,8.62
2022-10-19T21:44:18.392Z,8.65
2022-10-19T21:46:47.337Z,8.68
2022-10-19T21:49:13.913Z,8.77
2022-10-19T21:51:49.714Z,8.74
2022-10-19T21:54:18.766Z,8.72
2022-10-19T21:56:45.530Z,8.71
2022-10-19T21:59:12.813Z,8.68
2022-10-19T22:01:41.625Z,8.62
2022-10-19T22:04:15.291Z,8.74
2022-10-19T22:06:42.442Z,8.64
2022-10-19T22:09:11.998Z,8.66
2022-10-19T22:11:38.532Z,8.71
2022-10-19T22:14:05.392Z,8.57
2022-10-19T22:16:33.190Z,8.61
2022-10-19T22:18:59.636Z,8.58
2022-10-19T22:21:29.354Z,8.54
2022-10-19T22:24:05.389Z,8.48
2022-10-19T22:26:37.873Z,8.30
2022-10-19T22:29:05.313Z,8.47
2022-10-19T22:31:32.709Z,8.11
2022-10-19T22:34:04.772Z,8.44
2022-10-19T22:36:31.254Z,8.51
2022-10-19T22:38:57.718Z,8.37
2022-10-19T22:41:24.160Z,8.28
2022-10-19T22:43:50.594Z,8.04
2022-10-19T22:46:17.051Z,8.15
2022-10-19T22:48:43.638Z,8.19
2022-10-19T22:51:10.187Z,8.07
2022-10-19T22:53:36.638Z,8.07
2022-10-19T22:56:03.339Z,8.22
2022-10-19T22:58:29.759Z,8.11
2022-10-19T23:01:06.086Z,8.16
2022-10-19T23:03:32.912Z,8.19
2022-10-19T23:05:59.490Z,8.15
2022-10-19T23:08:26.669Z,8.09
2022-10-19T23:10:53.389Z,7.98
2022-10-19T23:13:19.845Z,8.12
2022-10-19T23:15:46.264Z,7.99
2022-10-19T23:18:13.553Z,8.03
2022-10-19T23:20:40.235Z,7.95
2022-10-19T23:23:06.961Z,7.98
2022-10-19T23:25:33.418Z,7.90
2022-10-19T23:27:59.896Z,7.82
2022-10-19T23:30:26.417Z,7.81
2022-10-19T23:32:52.846Z,7.81
2022-10-19T23:35:19.318Z,7.94
2022-10-19T23:37:45.753Z,7.86
2022-10-19T23:40:12.319Z,7.84
2022-10-19T23:42:38.789Z,7.97
2022-10-19T23:45:05.734Z,7.89
2022-10-19T23:47:32.309Z,7.83
2022-10-19T23:49:58.829Z,7.73
2022-10-19T23:52:25.273Z,7.58
2022-10-19T23:54:51.693Z,7.57
2022-10-19T23:57:18.313Z,7.62
2022-10-19T23:59:44.741Z,7.56
